Time;durP1;ratioP1;P1;durP2;ratioP2;P2;SDS_P1;SDS_P2;PMS_P1;PMS_P2;Temp;Humidity;BMP_temperature;BMP_pressure;BME280_temperature;BME280_humidity;BME280_pressure;Samples;Min_cycle;Max_cycle;Signal;HPM_P1;HPM_P2
2023/07/07 00:01:51;;;;;;;5.60;3.63;;;17.00;1.00;;;;;;7389066;19;20517;-67
2023/07/07 00:04:23;;;;;;;9.63;4.10;;;17.00;1.00;;;;;;7387465;19;20078;-67
2023/07/07 00:06:53;;;;;;;7.05;3.50;;;17.00;1.00;;;;;;7388474;19;20471;-67
2023/07/07 00:09:27;;;;;;;7.95;4.38;;;16.80;1.00;;;;;;7391513;19;20022;-67
2023/07/07 00:11:57;;;;;;;6.57;3.93;;;16.80;1.00;;;;;;7386948;19;20022;-67
2023/07/07 00:14:27;;;;;;;8.20;4.07;;;16.80;1.00;;;;;;7387622;19;20484;-67
2023/07/07 00:17:01;;;;;;;8.80;4.05;;;16.70;1.00;;;;;;7388768;19;20078;-67
2023/07/07 00:19:32;;;;;;;9.18;3.90;;;16.70;1.00;;;;;;7387475;19;20671;-67
2023/07/07 00:22:03;;;;;;;8.02;4.00;;;16.60;1.00;;;;;;7386804;19;20022;-67
2023/07/07 00:24:36;;;;;;;9.88;3.85;;;16.60;1.00;;;;;;7386916;19;20402;-67
2023/07/07 00:27:07;;;;;;;6.38;3.50;;;16.70;1.00;;;;;;7388441;19;20010;-67
2023/07/07 00:29:37;;;;;;;7.93;3.70;;;16.70;1.00;;;;;;7389611;19;20108;-67
2023/07/07 00:32:08;;;;;;;6.00;3.38;;;16.70;1.00;;;;;;7387700;19;20015;-67
2023/07/07 00:34:38;;;;;;;6.15;3.65;;;16.70;1.00;;;;;;7387255;19;20026;-67
2023/07/07 00:37:08;;;;;;;6.60;3.05;;;16.50;1.00;;;;;;7388164;19;20019;-67
2023/07/07 00:39:40;;;;;;;4.75;3.70;;;16.40;1.00;;;;;;7387455;19;20014;-67
2023/07/07 00:42:11;;;;;;;6.40;3.72;;;16.40;1.00;;;;;;7387885;19;20070;-67
2023/07/07 00:45:14;;;;;;;8.30;3.97;;;16.50;1.00;;;;;;7387299;19;20034;-67
2023/07/07 00:47:49;;;;;;;6.88;4.15;;;16.60;1.00;;;;;;7387637;19;20021;-67
2023/07/07 00:50:23;;;;;;;7.13;3.47;;;16.40;1.00;;;;;;7386716;19;20382;-67
2023/07/07 00:52:53;;;;;;;7.50;3.07;;;16.30;1.00;;;;;;7387641;19;20015;-67
2023/07/07 00:55:29;;;;;;;5.57;3.53;;;16.30;1.00;;;;;;7386857;19;20243;-67
2023/07/07 00:58:06;;;;;;;6.18;3.75;;;16.30;1.00;;;;;;7387557;19;20011;-67
2023/07/07 01:00:36;;;;;;;5.70;3.88;;;16.10;1.00;;;;;;7385917;19;20084;-67
2023/07/07 01:03:11;;;;;;;4.90;3.80;;;16.10;1.00;;;;;;7387385;19;20014;-67
2023/07/07 01:05:45;;;;;;;8.80;3.97;;;16.00;1.00;;;;;;7391227;19;20070;-67
2023/07/07 01:08:15;;;;;;;5.60;3.47;;;16.00;1.00;;;;;;7394220;19;20074;-67
2023/07/07 01:10:48;;;;;;;4.60;3.30;;;16.00;1.00;;;;;;7392668;19;20031;-67
2023/07/07 01:13:18;;;;;;;4.65;3.38;;;15.90;1.00;;;;;;7394485;19;20019;-67
2023/07/07 01:16:02;;;;;;;6.65;3.60;;;15.90;1.00;;;;;;7394834;19;20014;-67
2023/07/07 01:18:40;;;;;;;4.05;3.30;;;15.90;1.00;;;;;;7393954;19;20014;-67
2023/07/07 01:21:18;;;;;;;10.95;3.72;;;15.90;1.00;;;;;;7392221;19;20018;-67
2023/07/07 01:24:08;;;;;;;4.45;3.10;;;15.80;1.00;;;;;;7392082;19;20328;-67
2023/07/07 01:27:11;;;;;;;6.97;3.72;;;15.80;1.00;;;;;;7392198;19;20022;-67
2023/07/07 01:30:08;;;;;;;4.75;3.17;;;15.80;1.00;;;;;;7395522;19;20102;-67
2023/07/07 01:32:41;;;;;;;5.90;3.63;;;15.70;1.00;;;;;;7394191;19;20006;-67
2023/07/07 01:35:17;;;;;;;5.75;3.60;;;15.70;1.00;;;;;;7393767;19;20014;-67
2023/07/07 01:37:53;;;;;;;;;;;15.80;1.00;;;;;;7394474;19;20015;-67
2023/07/07 01:40:24;;;;;;;6.55;3.75;;;15.70;1.00;;;;;;7391324;19;19922;-67
2023/07/07 01:42:59;;;;;;;6.45;3.88;;;15.70;1.00;;;;;;7393814;19;20056;-67
2023/07/07 01:45:34;;;;;;;5.95;3.45;;;15.70;1.00;;;;;;7394125;19;20034;-67
2023/07/07 01:48:16;;;;;;;5.63;3.55;;;15.60;1.00;;;;;;7393737;19;20018;-67
2023/07/07 01:50:48;;;;;;;6.40;3.70;;;15.60;1.00;;;;;;7392431;19;20042;-67
2023/07/07 01:53:23;;;;;;;4.80;3.35;;;15.40;1.00;;;;;;7393763;19;20031;-67
2023/07/07 01:55:56;;;;;;;5.72;3.47;;;15.50;1.00;;;;;;7392969;19;20018;-67
2023/07/07 01:58:29;;;;;;;5.38;3.42;;;15.50;1.00;;;;;;7393328;19;20039;-67
2023/07/07 02:01:00;;;;;;;5.68;3.90;;;15.60;1.00;;;;;;7391634;19;20023;-68
2023/07/07 02:03:32;;;;;;;7.88;4.35;;;15.50;1.00;;;;;;7392924;19;20475;-67
2023/07/07 02:06:02;;;;;;;8.20;4.72;;;15.40;1.00;;;;;;7391916;19;20018;-68
2023/07/07 02:08:32;;;;;;;5.35;3.78;;;15.30;1.00;;;;;;7392523;19;20037;-67
2023/07/07 02:11:02;;;;;;;7.65;4.10;;;15.20;1.00;;;;;;7391421;19;20496;-68
2023/07/07 02:13:32;;;;;;;5.70;3.42;;;15.20;1.00;;;;;;7392832;19;20007;-67
2023/07/07 02:16:03;;;;;;;10.88;3.97;;;15.30;1.00;;;;;;7390391;19;20747;-67
2023/07/07 02:18:37;;;;;;;6.50;3.85;;;15.30;1.00;;;;;;7391851;19;20019;-67
2023/07/07 02:21:08;;;;;;;5.43;3.20;;;15.30;1.00;;;;;;7389561;19;20022;-67
2023/07/07 02:23:38;;;;;;;6.03;3.92;;;15.20;1.00;;;;;;7392265;19;20014;-67
2023/07/07 02:26:08;;;;;;;13.20;4.28;;;15.20;1.00;;;;;;7391199;19;20014;-67
2023/07/07 02:28:38;;;;;;;6.88;3.58;;;15.10;1.00;;;;;;7392150;19;20027;-67
2023/07/07 02:31:08;;;;;;;6.53;4.05;;;15.00;1.00;;;;;;7394801;19;20014;-67
2023/07/07 02:33:41;;;;;;;6.32;3.35;;;15.10;1.00;;;;;;7391974;19;20364;-67
2023/07/07 02:36:12;;;;;;;5.78;3.60;;;15.10;1.00;;;;;;7391060;19;20078;-68
2023/07/07 02:38:42;;;;;;;5.78;3.72;;;15.00;1.00;;;;;;7392464;19;20027;-68
2023/07/07 02:41:12;;;;;;;7.38;4.05;;;14.90;1.00;;;;;;7390613;19;20045;-68
2023/07/07 02:43:43;;;;;;;6.78;3.72;;;14.90;1.00;;;;;;7391590;19;20019;-67
2023/07/07 02:46:13;;;;;;;7.18;4.28;;;14.90;1.00;;;;;;7392595;19;20626;-67
2023/07/07 02:48:45;;;;;;;7.32;4.57;;;14.80;1.00;;;;;;7392046;19;20022;-67
2023/07/07 02:51:15;;;;;;;7.93;4.05;;;14.80;1.00;;;;;;7390292;19;20070;-67
2023/07/07 02:53:45;;;;;;;7.68;4.15;;;14.80;1.00;;;;;;7391405;19;20042;-67
2023/07/07 02:56:15;;;;;;;7.03;4.15;;;14.70;1.00;;;;;;7391105;19;20010;-67
2023/07/07 02:58:45;;;;;;;7.75;3.95;;;14.80;1.00;;;;;;7392086;19;20031;-67
2023/07/07 03:01:17;;;;;;;5.57;3.60;;;14.80;1.00;;;;;;7389855;19;20051;-67
2023/07/07 03:03:51;;;;;;;10.07;4.38;;;14.70;1.00;;;;;;7391128;19;20014;-67
2023/07/07 03:06:24;;;;;;;8.18;4.18;;;14.70;1.00;;;;;;7389996;19;20505;-67
2023/07/07 03:08:54;;;;;;;6.88;3.83;;;14.60;1.00;;;;;;7391080;19;20112;-67
2023/07/07 03:11:25;;;;;;;8.35;4.15;;;14.60;1.00;;;;;;7389157;19;20007;-67
2023/07/07 03:13:55;;;;;;;6.15;3.88;;;14.50;1.00;;;;;;7390954;19;20039;-67
2023/07/07 03:16:30;;;;;;;6.55;4.50;;;14.50;1.00;;;;;;7390924;19;20018;-67
2023/07/07 03:19:05;;;;;;;9.20;4.18;;;14.50;1.00;;;;;;7390857;19;20010;-67
2023/07/07 03:21:35;;;;;;;7.13;4.30;;;14.50;1.00;;;;;;7389301;19;20022;-67
2023/07/07 03:24:06;;;;;;;11.27;5.05;;;14.50;1.00;;;;;;7390499;19;20395;-67
2023/07/07 03:26:36;;;;;;;9.63;4.47;;;14.60;1.00;;;;;;7388840;19;20015;-67
2023/07/07 03:29:06;;;;;;;9.05;5.40;;;14.60;1.00;;;;;;7390849;19;20007;-68
2023/07/07 03:31:36;;;;;;;8.27;4.80;;;14.40;1.00;;;;;;7388450;19;20034;-67
2023/07/07 03:34:08;;;;;;;9.68;4.63;;;14.40;1.00;;;;;;7390340;19;20014;-67
2023/07/07 03:36:40;;;;;;;8.55;4.72;;;14.50;1.00;;;;;;7390639;19;20022;-67
2023/07/07 03:39:10;;;;;;;5.20;3.97;;;14.50;1.00;;;;;;7389868;19;20018;-67
2023/07/07 03:41:40;;;;;;;9.65;4.13;;;14.60;1.00;;;;;;7388454;19;20006;-67
2023/07/07 03:44:10;;;;;;;7.32;4.00;;;14.60;1.00;;;;;;7388991;19;20018;-67
2023/07/07 03:46:40;;;;;;;7.50;4.57;;;14.70;1.00;;;;;;7394040;19;20022;-67
2023/07/07 03:49:13;;;;;;;7.05;4.10;;;15.00;1.00;;;;;;7389329;19;20014;-67
2023/07/07 03:51:43;;;;;;;6.80;4.47;;;15.40;1.00;;;;;;7390230;19;20022;-67
2023/07/07 03:54:13;;;;;;;14.02;5.03;;;15.90;1.00;;;;;;7389256;19;20021;-67
2023/07/07 03:56:43;;;;;;;9.05;5.15;;;16.40;1.00;;;;;;7389728;19;20028;-67
2023/07/07 03:59:13;;;;;;;9.18;4.13;;;16.30;1.00;;;;;;7389492;19;20026;-68
2023/07/07 04:01:43;;;;;;;7.07;4.25;;;16.70;1.00;;;;;;7389419;19;20014;-68
2023/07/07 04:04:15;;;;;;;6.22;4.28;;;17.00;1.00;;;;;;7389163;19;20416;-68
2023/07/07 04:06:46;;;;;;;8.57;4.05;;;17.60;1.00;;;;;;7388311;19;20034;-68
2023/07/07 04:09:16;;;;;;;5.93;3.78;;;17.30;1.00;;;;;;7388685;19;20031;-68
2023/07/07 04:11:45;;;;;;;4.05;3.65;;;17.40;1.00;;;;;;7389298;19;20479;-66
2023/07/07 04:14:15;;;;;;;8.70;4.40;;;17.90;1.00;;;;;;7387132;19;20011;-67
2023/07/07 04:16:46;;;;;;;8.48;4.07;;;18.60;1.00;;;;;;7389252;19;20546;-68
2023/07/07 04:19:19;;;;;;;6.50;3.90;;;19.00;1.00;;;;;;7388888;19;20021;-67
2023/07/07 04:21:49;;;;;;;7.82;4.65;;;19.50;1.00;;;;;;7388904;19;20364;-68
2023/07/07 04:24:21;;;;;;;7.20;4.05;;;19.20;1.00;;;;;;7388745;19;20074;-68
2023/07/07 04:26:52;;;;;;;4.13;3.47;;;19.50;1.00;;;;;;7388126;19;20015;-68
2023/07/07 04:29:22;;;;;;;6.53;3.80;;;19.70;1.00;;;;;;7389512;19;20006;-68
2023/07/07 04:31:52;;;;;;;8.10;4.70;;;19.90;1.00;;;;;;7388818;19;20011;-67
2023/07/07 04:34:26;;;;;;;6.03;3.95;;;20.20;1.00;;;;;;7388673;19;20027;-68
2023/07/07 04:36:57;;;;;;;8.00;4.38;;;20.10;1.00;;;;;;7389091;19;20014;-68
2023/07/07 04:39:26;;;;;;;4.53;3.40;;;20.90;1.00;;;;;;7391936;19;20006;-67
2023/07/07 04:41:57;;;;;;;5.25;3.80;;;20.70;1.00;;;;;;7396300;19;20082;-68
2023/07/07 04:44:27;;;;;;;5.60;3.88;;;20.90;1.00;;;;;;7396211;19;20030;-68
2023/07/07 04:46:57;;;;;;;7.78;3.60;;;21.50;1.00;;;;;;7393969;19;20343;-68
2023/07/07 04:49:29;;;;;;;6.95;3.92;;;21.70;1.00;;;;;;7395256;19;20078;-68
2023/07/07 04:51:59;;;;;;;5.25;3.80;;;22.20;1.00;;;;;;7394998;19;20027;-68
2023/07/07 04:54:29;;;;;;;5.28;3.78;;;22.30;1.00;;;;;;7395743;19;20010;-68
2023/07/07 04:56:59;;;;;;;7.20;4.25;;;22.70;1.00;;;;;;7394707;19;20078;-70
2023/07/07 04:59:30;;;;;;;9.18;3.90;;;22.10;1.00;;;;;;7395461;19;20082;-68
2023/07/07 05:02:00;;;;;;;6.40;4.10;;;22.00;1.00;;;;;;7395057;19;20501;-68
2023/07/07 05:04:33;;;;;;;7.47;4.53;;;22.90;1.00;;;;;;7394708;19;20014;-67
2023/07/07 05:07:03;;;;;;;7.50;4.68;;;22.40;1.00;;;;;;7394180;19;20018;-67
2023/07/07 05:09:33;;;;;;;10.13;4.45;;;24.10;1.00;;;;;;7394309;19;20038;-67
2023/07/07 05:12:03;;;;;;;8.98;5.25;;;23.50;1.00;;;;;;7395039;19;20014;-68
2023/07/07 05:14:33;;;;;;;9.32;5.00;;;22.70;1.00;;;;;;7394286;19;20078;-69
2023/07/07 05:17:03;;;;;;;9.63;4.75;;;23.10;1.00;;;;;;7392566;19;20019;-67
2023/07/07 05:19:35;;;;;;;9.10;5.35;;;23.50;1.00;;;;;;7393242;19;20011;-68
2023/07/07 05:22:06;;;;;;;5.65;4.40;;;23.20;1.00;;;;;;7394404;19;20038;-67
2023/07/07 05:24:36;;;;;;;8.10;4.60;;;23.60;1.00;;;;;;7394161;19;20034;-68
2023/07/07 05:27:06;;;;;;;6.10;4.40;;;24.20;1.00;;;;;;7393235;19;20066;-68
2023/07/07 05:29:36;;;;;;;6.90;4.68;;;23.70;1.00;;;;;;7395632;19;20011;-67
2023/07/07 05:32:07;;;;;;;8.05;4.97;;;24.10;1.00;;;;;;7393684;19;20011;-68
2023/07/07 05:34:40;;;;;;;8.20;4.60;;;23.00;1.00;;;;;;7391054;19;20019;-68
2023/07/07 05:37:10;;;;;;;8.75;5.28;;;23.20;1.00;;;;;;7393034;19;20051;-68
2023/07/07 05:39:40;;;;;;;9.35;4.88;;;23.40;1.00;;;;;;7392088;19;20014;-68
2023/07/07 05:42:10;;;;;;;9.07;5.35;;;24.00;1.00;;;;;;7393179;19;20036;-68
2023/07/07 05:44:40;;;;;;;10.95;4.45;;;23.90;1.00;;;;;;7393314;19;20014;-69
2023/07/07 05:47:10;;;;;;;10.07;5.10;;;23.20;1.00;;;;;;7392473;19;20010;-67
2023/07/07 05:49:42;;;;;;;7.05;4.82;;;23.20;1.00;;;;;;7392365;19;20038;-68
2023/07/07 05:52:14;;;;;;;9.50;5.25;;;23.40;1.00;;;;;;7392933;19;20073;-68
2023/07/07 05:54:44;;;;;;;7.38;4.78;;;22.90;1.00;;;;;;7392302;19;20034;-67
2023/07/07 05:57:14;;;;;;;8.40;4.72;;;23.80;1.00;;;;;;7392890;19;20495;-69
2023/07/07 05:59:44;;;;;;;6.20;4.57;;;23.70;1.00;;;;;;7391796;19;20010;-69
2023/07/07 06:02:14;;;;;;;7.63;4.70;;;24.10;1.00;;;;;;7393068;19;20023;-68
2023/07/07 06:04:46;;;;;;;6.03;4.18;;;24.00;1.00;;;;;;7392822;19;20066;-69
2023/07/07 06:07:16;;;;;;;7.10;4.30;;;23.50;1.00;;;;;;7394670;19;20014;-69
2023/07/07 06:09:57;;;;;;;5.43;3.83;;;23.80;1.00;;;;;;7392809;19;20039;-69
2023/07/07 06:12:28;;;;;;;6.05;4.25;;;23.20;1.00;;;;;;7393883;19;20041;-68
2023/07/07 06:14:58;;;;;;;5.13;3.80;;;21.60;1.00;;;;;;7392133;19;20011;-68
2023/07/07 06:17:28;;;;;;;8.35;3.72;;;21.20;1.00;;;;;;7393039;19;20351;-68
2023/07/07 06:20:01;;;;;;;6.47;4.05;;;21.10;1.00;;;;;;7390914;19;20020;-69
2023/07/07 06:22:31;;;;;;;5.45;3.70;;;21.00;1.00;;;;;;7391790;19;20768;-67
2023/07/07 06:25:01;;;;;;;8.48;3.83;;;21.50;1.00;;;;;;7391459;19;20014;-68
2023/07/07 06:27:32;;;;;;;9.02;4.10;;;21.40;1.00;;;;;;7391857;19;20086;-68
2023/07/07 06:30:02;;;;;;;7.80;3.53;;;21.40;1.00;;;;;;7392723;19;20367;-68
2023/07/07 06:32:32;;;;;;;5.80;3.80;;;21.60;1.00;;;;;;7390285;19;20020;-68
2023/07/07 06:35:06;;;;;;;8.45;3.70;;;21.90;1.00;;;;;;7390663;19;20546;-66
2023/07/07 06:37:37;;;;;;;5.78;3.67;;;22.10;1.00;;;;;;7391305;19;20014;-68
2023/07/07 06:40:08;;;;;;;5.40;3.60;;;23.10;1.00;;;;;;7390435;19;20482;-69
2023/07/07 06:42:38;;;;;;;7.28;3.63;;;23.30;1.00;;;;;;7391532;19;20014;-68
2023/07/07 06:45:09;;;;;;;6.72;3.70;;;23.20;1.00;;;;;;7392282;19;20002;-68
2023/07/07 06:47:39;;;;;;;7.50;3.92;;;22.50;1.00;;;;;;7390299;19;20090;-68
2023/07/07 06:50:17;;;;;;;7.45;3.80;;;22.30;1.00;;;;;;7389878;19;20014;-66
2023/07/07 06:52:47;;;;;;;5.03;3.50;;;22.60;1.00;;;;;;7391337;19;20054;-69
2023/07/07 06:55:17;;;;;;;7.30;3.25;;;22.60;1.00;;;;;;7390282;19;20019;-68
2023/07/07 06:57:47;;;;;;;6.13;3.90;;;22.40;1.00;;;;;;7390640;19;20011;-67
2023/07/07 07:00:17;;;;;;;8.23;3.50;;;22.60;1.00;;;;;;7389323;19;20025;-68
2023/07/07 07:02:48;;;;;;;4.43;3.20;;;22.70;1.00;;;;;;7389957;19;20105;-69
2023/07/07 07:05:21;;;;;;;9.88;3.65;;;22.90;1.00;;;;;;7390367;19;20033;-69
2023/07/07 07:07:51;;;;;;;5.77;3.37;;;22.60;1.00;;;;;;7390328;19;20344;-68
2023/07/07 07:10:21;;;;;;;7.82;3.45;;;22.70;1.00;;;;;;7389435;19;20466;-69
2023/07/07 07:12:51;;;;;;;5.65;3.53;;;22.80;1.00;;;;;;7390007;19;20022;-69
2023/07/07 07:15:21;;;;;;;3.60;2.80;;;22.80;1.00;;;;;;7389551;19;20034;-70
2023/07/07 07:17:51;;;;;;;4.57;3.40;;;23.00;1.00;;;;;;7389609;19;20021;-69
2023/07/07 07:20:25;;;;;;;5.07;3.17;;;22.90;1.00;;;;;;7389131;19;20478;-68
2023/07/07 07:22:55;;;;;;;5.75;3.33;;;23.10;1.00;;;;;;7390060;19;20023;-70
2023/07/07 07:25:25;;;;;;;7.13;3.45;;;23.20;1.00;;;;;;7389793;19;20007;-68
2023/07/07 07:27:54;;;;;;;6.50;3.40;;;23.30;1.00;;;;;;7389751;19;20078;-68
2023/07/07 07:30:24;;;;;;;4.80;3.35;;;23.80;1.00;;;;;;7392330;19;20035;-69
2023/07/07 07:32:55;;;;;;;5.10;3.33;;;23.30;1.00;;;;;;7390382;19;20014;-71
2023/07/07 07:35:28;;;;;;;4.97;3.50;;;23.30;1.00;;;;;;7388725;19;20010;-69
2023/07/07 07:37:58;;;;;;;5.63;3.30;;;23.40;1.00;;;;;;7388897;19;20014;-68
2023/07/07 07:40:29;;;;;;;9.23;3.72;;;24.10;1.00;;;;;;7388576;19;20419;-68
2023/07/07 07:42:59;;;;;;;7.07;3.65;;;23.80;1.00;;;;;;7392449;19;20006;-69
2023/07/07 07:45:29;;;;;;;7.57;3.92;;;24.10;1.00;;;;;;7392704;19;20003;-69
2023/07/07 07:47:59;;;;;;;5.18;3.70;;;23.80;1.00;;;;;;7391252;19;20482;-68
2023/07/07 07:50:33;;;;;;;6.43;3.70;;;24.30;1.00;;;;;;7390131;19;20330;-69
2023/07/07 07:53:03;;;;;;;7.07;5.07;;;24.60;1.00;;;;;;7389342;19;20043;-68
2023/07/07 07:55:33;;;;;;;7.05;4.43;;;24.50;1.00;;;;;;7387860;19;20481;-69
2023/07/07 07:58:03;;;;;;;7.65;3.55;;;24.00;1.00;;;;;;7390828;19;20070;-68
2023/07/07 08:00:33;;;;;;;7.68;3.53;;;24.40;1.00;;;;;;7389882;19;20011;-68
2023/07/07 08:03:03;;;;;;;6.72;4.13;;;24.40;1.00;;;;;;7388647;19;20010;-66
2023/07/07 08:05:36;;;;;;;5.28;3.55;;;23.90;1.00;;;;;;7389471;19;20346;-69
2023/07/07 08:08:07;;;;;;;5.78;3.78;;;24.00;1.00;;;;;;7389428;19;20014;-69
2023/07/07 08:10:39;;;;;;;5.93;3.63;;;24.40;1.00;;;;;;7389554;19;20018;-69
2023/07/07 08:13:10;;;;;;;7.72;3.92;;;25.00;1.00;;;;;;7390612;19;20046;-68
2023/07/07 08:15:40;;;;;;;5.18;3.38;;;25.20;1.00;;;;;;7397903;19;20014;-67
2023/07/07 08:18:09;;;;;;;6.53;3.97;;;25.00;1.00;;;;;;7396946;19;20018;-68
2023/07/07 08:20:45;;;;;;;7.78;4.28;;;24.70;1.00;;;;;;7394109;19;20422;-69
2023/07/07 08:23:15;;;;;;;5.47;3.83;;;24.70;1.00;;;;;;7396244;19;20031;-68
2023/07/07 08:25:45;;;;;;;5.95;3.40;;;25.00;1.00;;;;;;7395671;19;20014;-69
2023/07/07 08:28:35;;;;;;;6.22;3.85;;;25.20;1.00;;;;;;7395914;19;20029;-66
2023/07/07 08:31:05;;;;;;;8.00;3.67;;;25.40;1.00;;;;;;7398708;19;20027;-68
2023/07/07 08:33:35;;;;;;;5.00;3.78;;;25.60;1.00;;;;;;7397480;19;20019;-68
2023/07/07 08:36:10;;;;;;;7.68;3.85;;;24.90;1.00;;;;;;7395486;19;20064;-67
2023/07/07 08:38:40;;;;;;;5.55;3.95;;;25.20;1.00;;;;;;7396792;19;20010;-68
2023/07/07 08:41:10;;;;;;;6.43;3.42;;;25.10;1.00;;;;;;7394179;19;20010;-67
2023/07/07 08:43:40;;;;;;;9.40;3.70;;;25.20;1.00;;;;;;7396322;19;20011;-68
2023/07/07 08:46:21;;;;;;;6.70;3.55;;;25.60;1.00;;;;;;7398040;19;20352;-68
2023/07/07 08:48:56;;;;;;;10.43;4.30;;;25.30;1.00;;;;;;7395677;19;20015;-68
2023/07/07 08:51:36;;;;;;;7.03;4.00;;;25.50;1.00;;;;;;7391041;19;20056;-68
2023/07/07 08:54:13;;;;;;;5.30;3.80;;;25.70;1.00;;;;;;7394549;19;20546;-68
2023/07/07 08:56:49;;;;;;;6.68;4.30;;;26.00;1.00;;;;;;7395593;19;20380;-69
2023/07/07 08:59:32;;;;;;;7.28;5.70;;;26.00;1.00;;;;;;7397558;19;20010;-68
2023/07/07 09:02:10;;;;;;;5.18;3.70;;;25.60;1.00;;;;;;7395717;19;20031;-68
2023/07/07 09:04:51;;;;;;;5.30;3.83;;;26.10;1.00;;;;;;7394723;19;20561;-69
2023/07/07 09:07:47;;;;;;;5.53;4.10;;;26.30;1.00;;;;;;7396573;19;20051;-68
2023/07/07 09:10:44;;;;;;;9.45;4.97;;;26.10;1.00;;;;;;7397137;19;20018;-68
2023/07/07 09:13:24;;;;;;;6.82;3.60;;;26.60;1.00;;;;;;7395188;19;20018;-68
2023/07/07 09:16:03;;;;;;;4.63;3.55;;;26.50;1.00;;;;;;7396237;19;20050;-67
2023/07/07 09:18:38;;;;;;;8.18;4.22;;;26.90;1.00;;;;;;7394693;19;20019;-68
2023/07/07 09:21:24;;;;;;;5.25;3.90;;;27.10;1.00;;;;;;7393317;19;20007;-66
2023/07/07 09:24:01;;;;;;;6.82;4.25;;;26.90;1.00;;;;;;7396825;19;20405;-68
2023/07/07 09:26:36;;;;;;;7.32;4.57;;;26.70;1.00;;;;;;7395462;19;20022;-68
2023/07/07 09:29:23;;;;;;;6.20;3.83;;;26.90;1.00;;;;;;7395046;19;20036;-68
2023/07/07 09:31:53;;;;;;;7.50;4.22;;;27.00;1.00;;;;;;7395610;19;20038;-68
2023/07/07 09:34:25;;;;;;;8.52;4.22;;;27.50;1.00;;;;;;7395037;19;20014;-68
2023/07/07 09:37:05;;;;;;;4.32;3.75;;;27.50;1.00;;;;;;7394559;19;20011;-68
2023/07/07 09:40:06;;;;;;;7.57;4.57;;;27.60;1.00;;;;;;7391857;19;20474;-67
2023/07/07 09:42:47;;;;;;;6.68;4.00;;;27.30;1.00;;;;;;7394761;19;20043;-69
2023/07/07 09:45:27;;;;;;;5.22;3.90;;;27.40;1.00;;;;;;7397740;19;20011;-68
2023/07/07 09:48:07;;;;;;;7.15;4.30;;;27.10;1.00;;;;;;7396495;19;20070;-69
2023/07/07 09:50:46;;;;;;;7.05;3.95;;;27.20;1.00;;;;;;7393509;19;20011;-68
2023/07/07 09:53:22;;;;;;;7.30;5.05;;;27.50;1.00;;;;;;7396880;19;20015;-68
2023/07/07 09:55:59;;;;;;;7.47;4.35;;;27.60;1.00;;;;;;7395233;19;20019;-68
2023/07/07 09:58:34;;;;;;;8.77;4.45;;;27.50;1.00;;;;;;7398580;19;20011;-68
2023/07/07 10:01:05;;;;;;;6.22;4.63;;;27.80;1.00;;;;;;7392213;19;20038;-67
2023/07/07 10:03:38;;;;;;;6.88;5.32;;;28.00;1.00;;;;;;7392223;19;20014;-69
2023/07/07 10:06:14;;;;;;;6.80;4.35;;;28.10;1.00;;;;;;7396358;19;20329;-68
2023/07/07 10:08:44;;;;;;;6.65;4.60;;;27.70;1.00;;;;;;7393101;19;20010;-68
2023/07/07 10:11:20;;;;;;;8.00;4.85;;;27.50;1.00;;;;;;7392652;19;20007;-68
2023/07/07 10:13:55;;;;;;;9.10;5.18;;;27.60;1.00;;;;;;7391964;19;20015;-68
2023/07/07 10:16:35;;;;;;;7.20;4.68;;;27.50;1.00;;;;;;7394501;19;20074;-69
2023/07/07 10:19:09;;;;;;;8.95;5.15;;;27.70;1.00;;;;;;7392029;19;20014;-69
2023/07/07 10:21:40;;;;;;;6.45;4.70;;;27.80;1.00;;;;;;7390946;19;20018;-68
2023/07/07 10:24:12;;;;;;;8.68;5.85;;;28.10;1.00;;;;;;7391621;19;20014;-67
2023/07/07 10:26:47;;;;;;;6.78;5.07;;;28.50;1.00;;;;;;7392047;19;20011;-68
2023/07/07 10:29:23;;;;;;;9.35;5.93;;;28.50;1.00;;;;;;7392117;19;20014;-68
2023/07/07 10:31:54;;;;;;;7.18;4.78;;;28.20;1.00;;;;;;7378828;19;20014;-67
2023/07/07 10:34:28;;;;;;;9.70;5.68;;;28.10;1.00;;;;;;7393445;19;20030;-68
2023/07/07 10:36:59;;;;;;;8.20;5.50;;;28.50;1.00;;;;;;7389288;19;20033;-68
2023/07/07 10:39:31;;;;;;;7.80;5.78;;;28.50;1.00;;;;;;7391633;19;20031;-68
2023/07/07 10:42:04;;;;;;;8.30;6.28;;;28.90;1.00;;;;;;7395087;19;20018;-68
2023/07/07 10:44:34;;;;;;;9.02;6.15;;;28.60;1.00;;;;;;7390935;19;20018;-66
2023/07/07 10:47:04;;;;;;;9.88;6.30;;;28.60;1.00;;;;;;7391092;19;20014;-68
2023/07/07 10:49:52;;;;;;;9.85;7.07;;;28.40;1.00;;;;;;7387395;19;20025;-68
2023/07/07 10:52:46;;;;;;;9.02;6.20;;;28.50;1.00;;;;;;7390582;19;20297;-68
2023/07/07 10:55:24;;;;;;;10.70;7.20;;;28.60;1.00;;;;;;7390514;19;20034;-69
2023/07/07 10:58:16;;;;;;;10.63;7.53;;;28.50;1.00;;;;;;7390494;19;20017;-69
2023/07/07 11:00:58;;;;;;;9.50;6.75;;;29.00;1.00;;;;;;7388572;19;20014;-68
2023/07/07 11:04:01;;;;;;;11.00;7.35;;;29.30;1.00;;;;;;7390182;19;20032;-69
2023/07/07 11:06:39;;;;;;;13.98;7.57;;;29.10;1.00;;;;;;7389158;19;20026;-68
2023/07/07 11:09:29;;;;;;;9.77;7.45;;;28.90;1.00;;;;;;7390680;19;20042;-67
2023/07/07 11:12:07;;;;;;;12.27;7.97;;;28.70;1.00;;;;;;7382584;19;20086;-69
2023/07/07 11:14:52;;;;;;;11.57;7.57;;;28.80;1.00;;;;;;7388647;19;20380;-68
2023/07/07 11:17:39;;;;;;;9.77;8.02;;;29.30;1.00;;;;;;7388742;19;20013;-68
2023/07/07 11:20:55;;;;;;;9.02;7.20;;;29.20;1.00;;;;;;7386641;19;20064;-67
2023/07/07 11:24:04;;;;;;;9.57;6.40;;;28.60;1.00;;;;;;7384898;19;20014;-67
2023/07/07 11:27:14;;;;;;;11.88;7.53;;;29.10;1.00;;;;;;7385361;19;20018;-68
2023/07/07 11:29:57;;;;;;;12.30;7.53;;;29.60;1.00;;;;;;7390050;19;20081;-67
2023/07/07 11:32:40;;;;;;;9.63;7.05;;;29.40;1.00;;;;;;7387238;19;20578;-68
2023/07/07 11:35:38;;;;;;;9.02;6.75;;;29.50;1.00;;;;;;7387141;19;20022;-68
2023/07/07 11:38:25;;;;;;;11.23;6.57;;;29.60;1.00;;;;;;7388271;19;20039;-69
2023/07/07 11:41:01;;;;;;;9.95;6.75;;;29.20;1.00;;;;;;7386423;19;20026;-68
2023/07/07 11:43:58;;;;;;;12.40;7.18;;;29.30;1.00;;;;;;7387106;19;20030;-68
2023/07/07 11:46:47;;;;;;;17.70;6.80;;;29.40;1.00;;;;;;7392624;19;20038;-67
2023/07/07 11:49:35;;;;;;;11.40;6.78;;;29.60;1.00;;;;;;7385813;19;20092;-66
2023/07/07 11:52:18;;;;;;;31.58;21.27;;;29.10;1.00;;;;;;7389149;19;20090;-69
2023/07/07 11:54:59;;;;;;;37.78;24.20;;;29.20;1.00;;;;;;7387073;19;20022;-69
2023/07/07 11:57:47;;;;;;;37.33;23.75;;;29.30;1.00;;;;;;7388325;19;20014;-72
2023/07/07 12:00:39;;;;;;;46.28;27.98;;;29.50;1.00;;;;;;7385956;19;20021;-71
2023/07/07 12:03:36;;;;;;;33.05;20.17;;;30.00;1.00;;;;;;7385895;19;20014;-70
2023/07/07 12:06:15;;;;;;;56.85;34.40;;;29.50;1.00;;;;;;7385558;19;20010;-70
2023/07/07 12:08:56;;;;;;;77.25;47.67;;;29.80;1.00;;;;;;7386573;19;20344;-71
2023/07/07 12:11:31;;;;;;;52.60;31.13;;;29.70;1.00;;;;;;7386957;19;20019;-69
2023/07/07 12:14:13;;;;;;;22.08;13.27;;;29.90;1.00;;;;;;7386020;19;20062;-69
2023/07/07 12:16:46;;;;;;;48.92;30.08;;;29.80;1.00;;;;;;7386840;19;20384;-69
2023/07/07 12:19:30;;;;;;;31.23;21.15;;;30.10;1.00;;;;;;7388025;19;20024;-70
2023/07/07 12:22:03;;;;;;;32.25;20.67;;;29.90;1.00;;;;;;7389664;19;20091;-69
2023/07/07 12:24:40;;;;;;;42.40;28.95;;;30.00;1.00;;;;;;7385592;19;20015;-71
2023/07/07 12:27:17;;;;;;;12.15;8.88;;;29.80;1.00;;;;;;7385658;19;20034;-70
2023/07/07 12:29:50;;;;;;;19.63;13.60;;;30.10;1.00;;;;;;7388326;19;20031;-70
2023/07/07 12:32:21;;;;;;;15.65;11.07;;;30.30;1.00;;;;;;7388159;19;20322;-71
2023/07/07 12:35:06;;;;;;;10.85;8.73;;;29.90;1.00;;;;;;7386698;19;20039;-70
2023/07/07 12:37:38;;;;;;;7.82;5.80;;;29.90;1.00;;;;;;7385994;19;20035;-70
2023/07/07 12:40:18;;;;;;;10.77;7.07;;;29.90;1.00;;;;;;7390557;19;20032;-72
2023/07/07 12:42:56;;;;;;;12.55;6.60;;;30.10;1.00;;;;;;7385080;19;20018;-72
2023/07/07 12:45:32;;;;;;;11.98;6.85;;;30.30;1.00;;;;;;7389174;19;20030;-70
2023/07/07 12:48:05;;;;;;;13.10;6.72;;;30.70;1.00;;;;;;7386770;19;20022;-71
2023/07/07 12:50:42;;;;;;;9.70;6.82;;;30.60;1.00;;;;;;7384247;19;20011;-71
2023/07/07 12:53:15;;;;;;;8.85;6.45;;;30.40;1.00;;;;;;7385156;19;20035;-71
2023/07/07 12:56:01;;;;;;;8.75;6.20;;;30.20;1.00;;;;;;7381633;19;20482;-71
2023/07/07 12:58:44;;;;;;;9.20;6.25;;;30.20;1.00;;;;;;7383012;19;20018;-70
2023/07/07 13:01:28;;;;;;;11.17;6.73;;;30.40;1.00;;;;;;7389725;19;20038;-71
2023/07/07 13:04:16;;;;;;;10.07;6.03;;;30.40;1.00;;;;;;7392680;19;20267;-70
2023/07/07 13:07:08;;;;;;;9.25;6.38;;;30.40;1.00;;;;;;7388501;19;20025;-70
2023/07/07 13:09:55;;;;;;;8.05;6.28;;;30.50;1.00;;;;;;7392218;19;20034;-70
2023/07/07 13:12:48;;;;;;;11.80;6.85;;;30.10;1.00;;;;;;7394646;19;20027;-70
2023/07/07 13:15:22;;;;;;;8.85;6.13;;;30.40;1.00;;;;;;7388526;19;20088;-70
2023/07/07 13:17:54;;;;;;;9.70;6.68;;;30.80;1.00;;;;;;7389389;19;20006;-71
2023/07/07 13:20:26;;;;;;;10.00;6.38;;;30.40;1.00;;;;;;7392772;19;20022;-70
2023/07/07 13:23:06;;;;;;;10.18;6.28;;;30.50;1.00;;;;;;7390056;19;20014;-71
2023/07/07 13:25:37;;;;;;;8.20;5.80;;;30.20;1.00;;;;;;7388318;19;20711;-71
2023/07/07 13:28:13;;;;;;;8.70;6.05;;;30.00;1.00;;;;;;7393485;19;20090;-71
2023/07/07 13:30:45;;;;;;;8.20;5.80;;;30.20;1.00;;;;;;7393677;19;20015;-70
2023/07/07 13:33:17;;;;;;;8.60;6.20;;;30.40;1.00;;;;;;7392810;19;20307;-70
2023/07/07 13:35:50;;;;;;;8.30;5.70;;;30.80;1.00;;;;;;7391275;19;20026;-69